createdAt,value
2022-11-17T00:00:58.458Z,3.91
2022-11-17T00:02:02.700Z,3.92
2022-11-17T00:03:06.741Z,3.92
2022-11-17T00:04:10.887Z,3.91
2022-11-17T00:05:14.954Z,3.91
2022-11-17T00:06:19.179Z,3.91
2022-11-17T00:07:23.437Z,3.91
2022-11-17T00:08:27.481Z,3.91
2022-11-17T00:09:31.628Z,3.91
2022-11-17T00:10:35.883Z,3.90
2022-11-17T00:11:39.898Z,3.89
2022-11-17T00:12:44.138Z,3.88
2022-11-17T00:13:48.090Z,3.90
2022-11-17T00:14:52.287Z,3.90
2022-11-17T00:15:56.441Z,3.92
2022-11-17T00:17:00.609Z,3.94
2022-11-17T00:18:04.662Z,3.94
2022-11-17T00:19:08.858Z,3.96
2022-11-17T00:20:13.040Z,3.95
2022-11-17T00:21:17.176Z,3.96
2022-11-17T00:22:21.335Z,3.98
2022-11-17T00:23:25.568Z,3.98
2022-11-17T00:24:29.673Z,3.99
2022-11-17T00:25:33.814Z,3.98
2022-11-17T00:26:38.119Z,3.98
2022-11-17T00:27:42.162Z,3.98
2022-11-17T00:28:46.358Z,3.98
2022-11-17T00:29:50.509Z,4.00
2022-11-17T00:30:54.655Z,4.00
2022-11-17T00:31:58.855Z,3.99
2022-11-17T00:33:03.008Z,3.98
2022-11-17T00:34:07.435Z,3.95
2022-11-17T00:35:11.256Z,3.93
2022-11-17T00:36:15.519Z,3.96
2022-11-17T00:37:19.721Z,3.98
2022-11-17T00:38:23.879Z,3.95
2022-11-17T00:39:28.060Z,3.97
2022-11-17T00:40:32.127Z,3.98
2022-11-17T00:41:36.326Z,4.00
2022-11-17T00:42:40.483Z,4.01
2022-11-17T00:43:44.619Z,4.00
2022-11-17T00:44:48.802Z,3.98
2022-11-17T00:45:52.924Z,3.99
2022-11-17T00:46:57.072Z,4.01
2022-11-17T00:48:01.206Z,4.01
2022-11-17T00:49:05.375Z,4.01
2022-11-17T00:50:09.620Z,4.03
2022-11-17T00:51:13.686Z,4.04
2022-11-17T00:52:17.864Z,4.03
2022-11-17T00:53:22.027Z,4.02
2022-11-17T00:54:26.148Z,4.01
2022-11-17T00:55:30.512Z,4.00
2022-11-17T00:56:34.552Z,3.97
2022-11-17T00:57:38.721Z,3.95
2022-11-17T00:58:42.992Z,3.95
2022-11-17T00:59:47.053Z,3.98
2022-11-17T01:00:51.229Z,3.97
2022-11-17T01:01:55.422Z,3.94
2022-11-17T01:02:59.506Z,3.94
2022-11-17T01:04:04.265Z,3.95
2022-11-17T01:05:07.868Z,3.96
2022-11-17T01:06:12.027Z,3.94
2022-11-17T01:07:16.337Z,3.95
2022-11-17T01:08:20.395Z,3.96
2022-11-17T01:09:24.543Z,3.97
2022-11-17T01:10:28.716Z,3.98
2022-11-17T01:11:32.984Z,4.00
2022-11-17T01:12:37.037Z,4.01
2022-11-17T01:13:41.207Z,4.01
2022-11-17T01:14:45.553Z,4.00
2022-11-17T01:15:49.526Z,4.01
2022-11-17T01:16:53.742Z,4.00
2022-11-17T01:17:57.880Z,3.95
2022-11-17T01:19:02.073Z,3.88
2022-11-17T01:20:06.234Z,3.84
2022-11-17T01:21:10.407Z,3.78
2022-11-17T01:22:14.429Z,3.73
2022-11-17T01:23:18.624Z,3.74
2022-11-17T01:24:22.809Z,3.77
2022-11-17T01:25:26.954Z,3.77
2022-11-17T01:26:31.121Z,3.79
2022-11-17T01:27:35.263Z,3.79
2022-11-17T01:28:39.411Z,3.79
2022-11-17T01:29:43.570Z,3.81
2022-11-17T01:30:47.860Z,3.80
2022-11-17T01:31:51.876Z,3.80
2022-11-17T01:32:56.061Z,3.81
2022-11-17T01:34:00.201Z,3.79
2022-11-17T01:35:04.333Z,3.78
2022-11-17T01:36:08.500Z,3.77
2022-11-17T01:37:12.719Z,3.75
2022-11-17T01:38:16.873Z,3.74
2022-11-17T01:39:20.925Z,3.74
2022-11-17T01:40:25.113Z,3.73
2022-11-17T01:41:29.378Z,3.70
2022-11-17T01:42:33.491Z,3.71
2022-11-17T01:43:37.896Z,3.67
2022-11-17T01:44:41.799Z,3.64
2022-11-17T01:45:45.856Z,3.62
2022-11-17T01:46:50.205Z,3.59
2022-11-17T01:47:54.270Z,3.59
2022-11-17T01:48:58.383Z,3.58
2022-11-17T01:50:02.564Z,3.58
2022-11-17T01:51:06.702Z,3.59
2022-11-17T01:52:10.841Z,3.60
2022-11-17T01:53:15.011Z,3.62
2022-11-17T01:54:19.171Z,3.58
2022-11-17T01:55:23.314Z,3.58
2022-11-17T01:56:27.459Z,3.55
2022-11-17T01:57:31.589Z,3.52
2022-11-17T01:58:35.763Z,3.53
2022-11-17T01:59:39.810Z,3.52
2022-11-17T02:00:44.006Z,3.52
2022-11-17T02:01:48.225Z,3.53
2022-11-17T02:02:52.227Z,3.53
2022-11-17T02:03:56.443Z,3.54
2022-11-17T02:05:00.593Z,3.56
2022-11-17T02:06:04.734Z,3.57
2022-11-17T02:07:08.959Z,3.58
2022-11-17T02:08:13.027Z,3.56
2022-11-17T02:09:17.210Z,3.57
2022-11-17T02:10:21.393Z,3.53
2022-11-17T02:11:25.569Z,3.51
2022-11-17T02:12:29.686Z,3.47
2022-11-17T02:13:34.223Z,3.46
2022-11-17T02:14:37.989Z,3.44
2022-11-17T02:15:42.047Z,3.42
2022-11-17T02:16:46.285Z,3.40
2022-11-17T02:17:50.420Z,3.41
2022-11-17T02:18:54.571Z,3.39
2022-11-17T02:19:58.713Z,3.40
2022-11-17T02:21:02.867Z,3.39
2022-11-17T02:22:07.090Z,3.38
2022-11-17T02:23:11.115Z,3.35
2022-11-17T02:24:15.297Z,3.35
2022-11-17T02:25:22.975Z,3.34
2022-11-17T02:26:23.592Z,3.32
2022-11-17T02:27:27.743Z,3.32
2022-11-17T02:28:31.888Z,3.32
2022-11-17T02:29:36.011Z,3.33
2022-11-17T02:30:40.242Z,3.32
2022-11-17T02:31:44.418Z,3.30
2022-11-17T02:32:48.535Z,3.26
2022-11-17T02:33:52.795Z,3.24
2022-11-17T02:34:56.929Z,3.25
2022-11-17T02:36:00.970Z,3.27
2022-11-17T02:37:05.074Z,3.28
2022-11-17T02:38:09.335Z,3.29
2022-11-17T02:39:13.595Z,3.28
2022-11-17T02:40:17.687Z,3.27
2022-11-17T02:41:21.839Z,3.28
2022-11-17T02:42:29.020Z,3.29
2022-11-17T02:43:32.432Z,3.25
2022-11-17T02:44:36.295Z,3.22
2022-11-17T02:45:40.355Z,3.24
2022-11-17T02:46:44.584Z,3.24
2022-11-17T02:47:48.760Z,3.24
2022-11-17T02:48:52.891Z,3.23
2022-11-17T02:49:57.127Z,3.24
2022-11-17T02:51:01.343Z,3.26
2022-11-17T02:52:05.395Z,3.27
2022-11-17T02:53:09.573Z,3.25
2022-11-17T02:54:13.761Z,3.25
2022-11-17T02:55:17.955Z,3.21
2022-11-17T02:56:21.983Z,3.21
2022-11-17T02:57:26.196Z,3.23
2022-11-17T02:58:30.372Z,3.25
2022-11-17T02:59:34.573Z,3.28
2022-11-17T03:00:38.665Z,3.25
2022-11-17T03:01:42.715Z,3.26
2022-11-17T03:02:46.887Z,3.25
2022-11-17T03:03:51.141Z,3.24
2022-11-17T03:04:55.148Z,3.25
2022-11-17T03:05:59.441Z,3.24
2022-11-17T03:07:03.650Z,3.25
2022-11-17T03:08:07.593Z,3.29
2022-11-17T03:09:11.782Z,3.31
2022-11-17T03:10:15.843Z,3.32
2022-11-17T03:11:20.075Z,3.33
2022-11-17T03:12:24.217Z,3.34
2022-11-17T03:13:28.243Z,3.34
2022-11-17T03:14:32.487Z,3.34
2022-11-17T03:15:36.533Z,3.34
2022-11-17T03:16:40.617Z,3.35
2022-11-17T03:17:44.822Z,3.35
2022-11-17T03:18:49.010Z,3.34
2022-11-17T03:19:53.205Z,3.35
2022-11-17T03:20:57.336Z,3.37
2022-11-17T03:22:01.396Z,3.36
2022-11-17T03:23:05.683Z,3.35
2022-11-17T03:24:09.772Z,3.35
2022-11-17T03:25:13.916Z,3.33
2022-11-17T03:26:17.950Z,3.30
2022-11-17T03:27:22.062Z,3.28
2022-11-17T03:28:26.307Z,3.27
2022-11-17T03:29:30.563Z,3.28
2022-11-17T03:30:37.484Z,3.28
2022-11-17T03:31:38.628Z,3.28
2022-11-17T03:32:42.859Z,3.26
2022-11-17T03:33:46.962Z,3.25
2022-11-17T03:34:51.133Z,3.25
2022-11-17T03:35:55.274Z,3.26
2022-11-17T03:36:59.311Z,3.26
2022-11-17T03:38:03.661Z,3.27
2022-11-17T03:39:07.828Z,3.28
2022-11-17T03:40:11.805Z,3.29
2022-11-17T03:41:15.902Z,3.28
2022-11-17T03:42:20.014Z,3.29
2022-11-17T03:43:24.248Z,3.28
2022-11-17T03:44:28.431Z,3.25
2022-11-17T03:45:32.536Z,3.27
2022-11-17T03:46:36.710Z,3.29
2022-11-17T03:47:40.753Z,3.28
2022-11-17T03:48:44.978Z,3.26
2022-11-17T03:49:49.226Z,3.28
2022-11-17T03:50:53.193Z,3.25
2022-11-17T03:51:57.412Z,3.24
2022-11-17T03:53:01.590Z,3.25
2022-11-17T03:54:05.733Z,3.30
2022-11-17T03:55:09.941Z,3.31
2022-11-17T03:56:14.015Z,3.33
2022-11-17T03:57:18.230Z,3.33
2022-11-17T03:58:22.352Z,3.32
2022-11-17T03:59:26.406Z,3.33
2022-11-17T04:00:30.709Z,3.35
2022-11-17T04:01:34.948Z,3.36
2022-11-17T04:02:38.985Z,3.36
2022-11-17T04:03:43.148Z,3.38
2022-11-17T04:04:47.310Z,3.39
2022-11-17T04:05:51.462Z,3.42
2022-11-17T04:06:55.704Z,3.40
2022-11-17T04:07:59.613Z,3.37
2022-11-17T04:09:03.847Z,3.36
2022-11-17T04:10:08.089Z,3.38
2022-11-17T04:11:12.332Z,3.37
2022-11-17T04:12:16.487Z,3.35
2022-11-17T04:13:20.584Z,3.36
2022-11-17T04:14:24.733Z,3.31
2022-11-17T04:15:28.775Z,3.31
2022-11-17T04:16:33.061Z,3.30
2022-11-17T04:17:37.269Z,3.30
2022-11-17T04:18:41.473Z,3.31
2022-11-17T04:19:45.463Z,3.30
2022-11-17T04:20:49.679Z,3.28
2022-11-17T04:21:53.822Z,3.26
2022-11-17T04:22:57.875Z,3.25
2022-11-17T04:24:02.095Z,3.26
2022-11-17T04:25:06.256Z,3.26
2022-11-17T04:26:10.416Z,3.27
2022-11-17T04:27:14.599Z,3.27
2022-11-17T04:28:18.707Z,3.26
2022-11-17T04:29:22.899Z,3.27
2022-11-17T04:30:27.023Z,3.23
2022-11-17T04:31:31.166Z,3.23
2022-11-17T04:32:35.325Z,3.21
2022-11-17T04:33:39.448Z,3.18
2022-11-17T04:34:43.701Z,3.15
2022-11-17T04:35:47.870Z,3.16
2022-11-17T04:36:51.954Z,3.14
2022-11-17T04:37:56.189Z,3.13
2022-11-17T04:39:00.307Z,3.15
2022-11-17T04:40:04.481Z,3.13
2022-11-17T04:41:08.619Z,3.13
2022-11-17T04:42:12.719Z,3.11
2022-11-17T04:43:16.941Z,3.13
2022-11-17T04:44:21.024Z,3.13
2022-11-17T04:45:25.201Z,3.11
2022-11-17T04:46:29.297Z,3.12
2022-11-17T04:47:33.475Z,3.15
2022-11-17T04:48:37.638Z,3.15
2022-11-17T04:49:41.790Z,3.15
2022-11-17T04:50:46.018Z,3.13
2022-11-17T04:51:50.130Z,3.12
2022-11-17T04:52:54.266Z,3.13
2022-11-17T04:53:58.471Z,3.11
2022-11-17T04:55:02.593Z,3.11
2022-11-17T04:56:06.734Z,3.13
2022-11-17T04:57:10.971Z,3.11
2022-11-17T04:58:15.043Z,3.10
2022-11-17T04:59:19.295Z,3.07
2022-11-17T05:00:23.345Z,3.05
2022-11-17T05:01:27.614Z,3.03
2022-11-17T05:02:31.745Z,3.02
2022-11-17T05:03:36.356Z,3.03
2022-11-17T05:04:40.013Z,3.00
2022-11-17T05:05:44.143Z,2.98
2022-11-17T05:06:48.297Z,2.96
2022-11-17T05:07:52.460Z,2.95
2022-11-17T05:08:56.688Z,2.98
2022-11-17T05:10:00.660Z,2.99
2022-11-17T05:11:04.963Z,2.98
2022-11-17T05:12:08.895Z,2.98
2022-11-17T05:13:12.992Z,2.96
2022-11-17T05:14:17.288Z,2.93
2022-11-17T05:15:21.484Z,2.93
2022-11-17T05:16:25.504Z,2.95
2022-11-17T05:17:29.642Z,2.94
2022-11-17T05:18:33.722Z,2.94
2022-11-17T05:19:37.955Z,2.93
2022-11-17T05:20:42.065Z,2.90
2022-11-17T05:21:46.209Z,2.91
2022-11-17T05:22:50.325Z,2.92
2022-11-17T05:23:54.462Z,2.92
2022-11-17T05:24:58.620Z,2.91
2022-11-17T05:26:02.784Z,2.92
2022-11-17T05:27:06.836Z,2.92
2022-11-17T05:28:10.941Z,2.90
2022-11-17T05:29:15.056Z,2.89
2022-11-17T05:30:19.254Z,2.91
2022-11-17T05:31:23.542Z,2.90
2022-11-17T05:32:27.532Z,2.89
2022-11-17T05:33:37.456Z,2.92
2022-11-17T05:34:35.771Z,2.93
2022-11-17T05:35:39.825Z,2.95
2022-11-17T05:36:44.083Z,2.95
2022-11-17T05:37:48.221Z,2.94
2022-11-17T05:38:52.251Z,2.95
2022-11-17T05:39:56.514Z,2.95
2022-11-17T05:41:00.614Z,2.95
2022-11-17T05:42:04.760Z,2.94
2022-11-17T05:43:08.891Z,2.96
2022-11-17T05:44:13.160Z,2.96
2022-11-17T05:45:17.322Z,2.97
2022-11-17T05:46:21.426Z,2.99
2022-11-17T05:47:25.625Z,2.99
2022-11-17T05:48:29.682Z,2.99
2022-11-17T05:49:33.827Z,2.99
2022-11-17T05:50:38.008Z,3.00
2022-11-17T05:51:42.020Z,3.01
2022-11-17T05:52:46.218Z,3.03
2022-11-17T05:53:50.362Z,3.04
2022-11-17T05:54:54.513Z,3.05
2022-11-17T05:55:58.635Z,3.06
2022-11-17T05:57:02.887Z,3.05
2022-11-17T05:58:06.942Z,3.05
2022-11-17T05:59:11.085Z,3.06
2022-11-17T06:00:15.277Z,3.06
2022-11-17T06:01:19.382Z,3.05
2022-11-17T06:02:23.430Z,3.06
2022-11-17T06:03:27.671Z,3.06
2022-11-17T06:04:31.749Z,3.07
2022-11-17T06:05:35.936Z,3.06
2022-11-17T06:06:40.152Z,3.06
2022-11-17T06:07:44.362Z,3.06
2022-11-17T06:08:48.464Z,3.06
2022-11-17T06:09:52.601Z,3.06
2022-11-17T06:10:56.751Z,3.07
2022-11-17T06:12:05.545Z,3.07
2022-11-17T06:13:05.018Z,3.07
2022-11-17T06:14:09.267Z,3.07
2022-11-17T06:15:13.460Z,3.06
2022-11-17T06:16:17.565Z,3.08
2022-11-17T06:17:22.730Z,3.09
2022-11-17T06:18:25.966Z,3.10
2022-11-17T06:19:30.194Z,3.12
2022-11-17T06:20:34.249Z,3.14
2022-11-17T06:22:09.803Z,3.11
2022-11-17T06:22:47.990Z,3.11
2022-11-17T06:23:46.622Z,3.09
2022-11-17T06:24:50.822Z,3.09
2022-11-17T06:25:54.866Z,3.10
2022-11-17T06:26:59.198Z,3.09
2022-11-17T06:28:03.194Z,3.08
2022-11-17T06:29:07.391Z,3.08
2022-11-17T06:30:11.599Z,3.10
2022-11-17T06:31:15.740Z,3.10
2022-11-17T06:32:19.982Z,3.09
2022-11-17T06:33:24.076Z,3.09
2022-11-17T06:34:28.111Z,3.08
2022-11-17T06:35:32.545Z,3.09
2022-11-17T06:36:36.402Z,3.11
2022-11-17T06:37:40.654Z,3.13
2022-11-17T06:38:44.815Z,3.13
2022-11-17T06:39:48.951Z,3.11
2022-11-17T06:40:53.111Z,3.09
2022-11-17T06:41:57.321Z,3.07
2022-11-17T06:43:01.439Z,3.08
2022-11-17T06:44:05.669Z,3.10
2022-11-17T06:45:09.721Z,3.12
2022-11-17T06:46:13.847Z,3.13
2022-11-17T06:47:17.897Z,3.13
2022-11-17T06:48:22.013Z,3.13
2022-11-17T06:49:26.171Z,3.14
2022-11-17T06:50:30.327Z,3.15
2022-11-17T06:51:34.459Z,3.17
2022-11-17T06:52:38.588Z,3.18
2022-11-17T06:53:42.765Z,3.19
2022-11-17T06:54:46.910Z,3.19
2022-11-17T06:55:51.054Z,3.18
2022-11-17T06:56:55.186Z,3.18
2022-11-17T06:57:59.438Z,3.20
2022-11-17T06:59:03.528Z,3.21
2022-11-17T07:00:07.754Z,3.23
2022-11-17T07:01:11.918Z,3.23
2022-11-17T07:02:16.003Z,3.24
2022-11-17T07:03:20.136Z,3.25
2022-11-17T07:04:24.245Z,3.25
2022-11-17T07:05:28.418Z,3.24
2022-11-17T07:06:32.569Z,3.24
2022-11-17T07:07:36.784Z,3.23
2022-11-17T07:08:40.934Z,3.24
2022-11-17T07:09:45.142Z,3.28
2022-11-17T07:10:49.565Z,3.28
2022-11-17T07:11:53.445Z,3.30
2022-11-17T07:12:57.407Z,3.32
2022-11-17T07:14:01.637Z,3.33
2022-11-17T07:15:05.809Z,3.34
2022-11-17T07:16:10.043Z,3.34
2022-11-17T07:17:14.101Z,3.34
2022-11-17T07:18:18.289Z,3.34
2022-11-17T07:19:22.425Z,3.33
2022-11-17T07:20:26.578Z,3.31
2022-11-17T07:21:30.736Z,3.31
2022-11-17T07:22:34.877Z,3.33
2022-11-17T07:23:39.073Z,3.33
2022-11-17T07:24:43.197Z,3.35
2022-11-17T07:25:47.342Z,3.36
2022-11-17T07:26:51.512Z,3.37
2022-11-17T07:27:55.572Z,3.38
2022-11-17T07:28:59.674Z,3.36
2022-11-17T07:30:03.900Z,3.34
2022-11-17T07:31:07.957Z,3.35
2022-11-17T07:32:12.177Z,3.38
2022-11-17T07:33:16.328Z,3.39
2022-11-17T07:34:20.404Z,3.38
2022-11-17T07:35:24.589Z,3.40
2022-11-17T07:36:28.729Z,3.42
2022-11-17T07:37:32.891Z,3.44
2022-11-17T07:38:37.558Z,3.40
2022-11-17T07:39:41.417Z,3.39
2022-11-17T07:40:45.412Z,3.40
2022-11-17T07:41:49.572Z,3.42
2022-11-17T07:42:53.840Z,3.43
2022-11-17T07:43:57.944Z,3.43
2022-11-17T07:45:02.301Z,3.42
2022-11-17T07:46:06.238Z,3.44
2022-11-17T07:47:10.459Z,3.43
2022-11-17T07:48:14.705Z,3.42
2022-11-17T07:49:18.806Z,3.41
2022-11-17T07:50:22.843Z,3.42
2022-11-17T07:51:27.111Z,3.43
2022-11-17T07:52:31.198Z,3.44
2022-11-17T07:53:35.367Z,3.44
2022-11-17T07:54:39.538Z,3.41
2022-11-17T07:55:43.735Z,3.43
2022-11-17T07:56:47.854Z,3.44
2022-11-17T07:57:51.988Z,3.45
2022-11-17T07:58:55.987Z,3.46
2022-11-17T08:00:00.192Z,3.48
2022-11-17T08:01:04.407Z,3.49
2022-11-17T08:02:08.492Z,3.51
2022-11-17T08:03:12.767Z,3.54
2022-11-17T08:04:16.791Z,3.54
2022-11-17T08:05:20.985Z,3.56
2022-11-17T08:06:25.050Z,3.56
2022-11-17T08:07:29.361Z,3.56
2022-11-17T08:08:33.729Z,3.56
2022-11-17T08:09:37.587Z,3.55
2022-11-17T08:10:41.762Z,3.56
2022-11-17T08:11:46.041Z,3.58
2022-11-17T08:12:50.174Z,3.59
2022-11-17T08:13:54.314Z,3.58
2022-11-17T08:14:58.582Z,3.58
2022-11-17T08:16:02.727Z,3.61
2022-11-17T08:17:06.863Z,3.61
2022-11-17T08:18:10.955Z,3.62
2022-11-17T08:19:15.231Z,3.65
2022-11-17T08:20:19.440Z,3.68
2022-11-17T08:21:23.521Z,3.71
2022-11-17T08:22:27.664Z,3.71
2022-11-17T08:23:31.806Z,3.71
2022-11-17T08:24:35.991Z,3.70
2022-11-17T08:25:40.149Z,3.71
2022-11-17T08:26:44.365Z,3.71
2022-11-17T08:27:48.463Z,3.70
2022-11-17T08:28:58.180Z,3.71
2022-11-17T08:29:56.865Z,3.73
2022-11-17T08:31:01.068Z,3.76
2022-11-17T08:32:05.176Z,3.76
2022-11-17T08:33:09.462Z,3.74
2022-11-17T08:34:13.562Z,3.74
2022-11-17T08:35:17.834Z,3.75
2022-11-17T08:36:21.935Z,3.78
2022-11-17T08:37:26.074Z,3.80
2022-11-17T08:38:30.236Z,3.80
2022-11-17T08:39:34.379Z,3.81
2022-11-17T08:40:38.541Z,3.80
2022-11-17T08:41:42.634Z,3.81
2022-11-17T08:42:46.672Z,3.84
2022-11-17T08:43:51.008Z,3.83
2022-11-17T08:44:55.055Z,3.81
2022-11-17T08:45:59.207Z,3.80
2022-11-17T08:47:03.441Z,3.80
2022-11-17T08:48:07.575Z,3.79
2022-11-17T08:49:11.820Z,3.81
2022-11-17T08:50:15.953Z,3.83
2022-11-17T08:51:20.099Z,3.82
2022-11-17T08:52:24.337Z,3.80
2022-11-17T08:53:28.523Z,3.82
2022-11-17T08:54:32.629Z,3.84
2022-11-17T08:55:40.761Z,3.86
2022-11-17T08:56:40.952Z,3.86
2022-11-17T08:57:45.108Z,3.84
2022-11-17T08:58:49.173Z,3.85
2022-11-17T08:59:53.536Z,3.87
2022-11-17T09:01:03.827Z,3.88
2022-11-17T09:02:01.784Z,3.88
2022-11-17T09:03:05.908Z,3.88
2022-11-17T09:04:10.066Z,3.88
2022-11-17T09:05:14.259Z,3.88
2022-11-17T09:06:18.489Z,3.89
2022-11-17T09:07:22.710Z,3.91
2022-11-17T09:09:30.949Z,3.90
2022-11-17T09:10:35.062Z,3.89
2022-11-17T09:11:39.219Z,3.92
2022-11-17T09:12:43.492Z,3.94
2022-11-17T09:13:47.604Z,3.93
2022-11-17T09:14:51.774Z,3.92
2022-11-17T09:15:55.984Z,3.89
2022-11-17T09:16:59.962Z,3.88
2022-11-17T09:18:04.205Z,3.89
2022-11-17T09:19:08.374Z,3.93
2022-11-17T09:20:12.549Z,3.91
2022-11-17T09:21:16.678Z,3.90
2022-11-17T09:22:20.738Z,3.87
2022-11-17T09:23:24.913Z,3.84
2022-11-17T09:24:29.075Z,3.82
2022-11-17T09:25:33.342Z,3.82
2022-11-17T09:26:37.504Z,3.81
2022-11-17T09:27:41.690Z,3.81
2022-11-17T09:28:45.875Z,3.83
2022-11-17T09:29:49.974Z,3.83
2022-11-17T09:30:54.212Z,3.83
2022-11-17T09:31:58.413Z,3.83
2022-11-17T09:33:02.342Z,3.83
2022-11-17T09:34:06.661Z,3.84
2022-11-17T09:35:10.704Z,3.83
2022-11-17T09:36:14.865Z,3.84
2022-11-17T09:37:19.023Z,3.86
2022-11-17T09:38:23.168Z,3.86
2022-11-17T09:39:27.276Z,3.86
2022-11-17T09:40:37.463Z,3.85
2022-11-17T09:41:35.607Z,3.86
2022-11-17T09:42:39.770Z,3.89
2022-11-17T09:43:44.023Z,3.89
2022-11-17T09:44:48.142Z,3.93
2022-11-17T09:45:52.278Z,3.94
2022-11-17T09:46:56.508Z,3.95
2022-11-17T09:48:18.478Z,3.95
2022-11-17T09:49:04.793Z,3.96
2022-11-17T09:50:08.955Z,3.97
2022-11-17T09:51:13.167Z,3.95
2022-11-17T09:52:17.396Z,3.97
2022-11-17T09:53:21.511Z,4.01
2022-11-17T09:54:25.693Z,4.04
2022-11-17T09:55:34.164Z,4.07
2022-11-17T09:56:34.021Z,4.12
2022-11-17T09:57:38.153Z,4.12
2022-11-17T09:58:42.319Z,4.13
2022-11-17T09:59:46.578Z,4.14
2022-11-17T10:00:50.697Z,4.15
2022-11-17T10:01:54.899Z,4.15
2022-11-17T10:02:58.984Z,4.17
2022-11-17T10:04:03.196Z,4.15
2022-11-17T10:05:10.389Z,4.15
2022-11-17T10:06:13.619Z,4.15
2022-11-17T10:07:17.779Z,4.14
2022-11-17T10:08:21.856Z,4.15
2022-11-17T10:09:26.310Z,4.18
2022-11-17T10:10:30.166Z,4.16
2022-11-17T10:11:34.389Z,4.14
2022-11-17T10:12:38.496Z,4.14
2022-11-17T10:13:42.505Z,4.13
2022-11-17T10:14:46.735Z,4.15
2022-11-17T10:15:50.921Z,4.16
2022-11-17T10:16:55.043Z,4.19
2022-11-17T10:17:59.170Z,4.21
2022-11-17T10:19:03.348Z,4.22
2022-11-17T10:20:07.546Z,4.23
2022-11-17T10:21:11.815Z,4.25
2022-11-17T10:22:15.952Z,4.23
2022-11-17T10:23:20.043Z,4.23
2022-11-17T10:24:24.211Z,4.22
2022-11-17T10:25:28.362Z,4.22
2022-11-17T10:26:32.535Z,4.26
2022-11-17T10:27:36.688Z,4.27
2022-11-17T10:28:40.892Z,4.27
2022-11-17T10:29:45.054Z,4.27
2022-11-17T10:30:49.225Z,4.26
2022-11-17T10:31:53.463Z,4.23
2022-11-17T10:32:57.476Z,4.21
2022-11-17T10:34:01.768Z,4.20
2022-11-17T10:35:05.834Z,4.19
2022-11-17T10:36:10.148Z,4.20
2022-11-17T10:37:14.205Z,4.22
2022-11-17T10:38:18.961Z,4.23
2022-11-17T10:39:22.862Z,4.23
2022-11-17T10:40:27.089Z,4.23
2022-11-17T10:41:31.203Z,4.23
2022-11-17T10:42:35.388Z,4.24
2022-11-17T10:43:39.572Z,4.24
2022-11-17T10:44:43.695Z,4.26
2022-11-17T10:45:47.982Z,4.26
2022-11-17T10:46:53.735Z,4.29
2022-11-17T10:47:56.285Z,4.27
2022-11-17T10:49:00.584Z,4.27
2022-11-17T10:50:04.826Z,4.23
2022-11-17T10:51:11.898Z,4.22
2022-11-17T10:52:15.084Z,4.20
2022-11-17T10:53:19.182Z,4.20
2022-11-17T10:54:23.342Z,4.22
2022-11-17T10:55:27.637Z,4.24
2022-11-17T10:56:31.750Z,4.24
2022-11-17T10:57:35.991Z,4.23
2022-11-17T10:58:40.146Z,4.23
2022-11-17T10:59:44.321Z,4.23
2022-11-17T11:00:48.547Z,4.24
2022-11-17T11:01:52.701Z,4.26
2022-11-17T11:02:56.867Z,4.25
2022-11-17T11:04:01.031Z,4.27
2022-11-17T11:05:05.166Z,4.26
2022-11-17T11:06:14.563Z,4.25
2022-11-17T11:07:13.530Z,4.26
2022-11-17T11:08:17.729Z,4.24
2022-11-17T11:09:21.663Z,4.20
2022-11-17T11:10:25.812Z,4.19
2022-11-17T11:11:35.975Z,4.17
2022-11-17T11:12:34.259Z,4.16
2022-11-17T11:13:38.422Z,4.17
2022-11-17T11:14:42.574Z,4.19
2022-11-17T11:15:46.860Z,4.19
2022-11-17T11:16:50.964Z,4.23
2022-11-17T11:17:55.107Z,4.23
2022-11-17T11:18:59.264Z,4.23
2022-11-17T11:20:03.452Z,4.21
2022-11-17T11:21:07.600Z,4.20
2022-11-17T11:22:14.676Z,4.20
2022-11-17T11:23:16.064Z,4.18
2022-11-17T11:24:20.279Z,4.21
2022-11-17T11:25:24.385Z,4.20
2022-11-17T11:26:28.567Z,4.19
2022-11-17T11:27:32.726Z,4.18
2022-11-17T11:28:40.070Z,4.17
2022-11-17T11:29:41.095Z,4.16
2022-11-17T11:30:45.153Z,4.16
2022-11-17T11:31:49.354Z,4.12
2022-11-17T11:32:53.524Z,4.10
2022-11-17T11:33:57.685Z,4.08
2022-11-17T11:35:01.948Z,4.06
2022-11-17T11:36:06.185Z,4.06
2022-11-17T11:37:10.313Z,4.06
2022-11-17T11:38:14.460Z,4.06
2022-11-17T11:39:18.525Z,4.08
2022-11-17T11:40:22.791Z,4.08
2022-11-17T11:41:26.903Z,4.07
2022-11-17T11:42:31.066Z,4.05
2022-11-17T11:43:35.215Z,4.03
2022-11-17T11:44:42.380Z,4.04
2022-11-17T11:45:45.587Z,4.05
2022-11-17T11:46:49.745Z,4.05
2022-11-17T11:47:53.885Z,4.04
2022-11-17T11:48:58.023Z,4.05
2022-11-17T11:50:02.165Z,4.06
2022-11-17T11:51:06.351Z,4.06
2022-11-17T11:52:10.551Z,4.05
2022-11-17T11:53:14.717Z,4.05
2022-11-17T11:54:18.874Z,4.04
2022-11-17T11:55:23.018Z,4.02
2022-11-17T11:56:27.337Z,4.04
2022-11-17T11:57:31.406Z,4.05
2022-11-17T11:58:35.537Z,4.09
2022-11-17T11:59:39.793Z,4.11
2022-11-17T12:00:43.899Z,4.12
2022-11-17T12:01:48.156Z,4.10
2022-11-17T12:02:52.288Z,4.06
2022-11-17T12:03:56.491Z,4.03
2022-11-17T12:05:00.577Z,4.03
2022-11-17T12:06:04.881Z,4.03
2022-11-17T12:07:09.159Z,4.02
2022-11-17T12:08:13.205Z,4.03
2022-11-17T12:09:17.329Z,4.06
2022-11-17T12:10:21.564Z,4.06
2022-11-17T12:11:25.762Z,4.04
2022-11-17T12:12:30.015Z,4.05
2022-11-17T12:13:33.998Z,4.07
2022-11-17T12:14:38.221Z,4.06
2022-11-17T12:15:42.353Z,4.06
2022-11-17T12:16:46.616Z,4.06
2022-11-17T12:17:50.721Z,4.05
2022-11-17T12:18:54.787Z,4.04
2022-11-17T12:19:59.009Z,4.06
2022-11-17T12:21:03.262Z,4.07
2022-11-17T12:22:07.376Z,4.10
2022-11-17T12:23:11.491Z,4.09
2022-11-17T12:24:15.693Z,4.09
2022-11-17T12:25:19.947Z,4.07
2022-11-17T12:26:24.015Z,4.04
2022-11-17T12:27:28.194Z,4.05
2022-11-17T12:28:32.355Z,4.04
2022-11-17T12:29:36.484Z,4.05
2022-11-17T12:30:40.648Z,4.04
2022-11-17T12:31:44.797Z,4.05
2022-11-17T12:32:48.964Z,4.04
2022-11-17T12:33:53.237Z,4.04
2022-11-17T12:34:57.336Z,4.05
2022-11-17T12:36:01.587Z,4.06
2022-11-17T12:37:05.682Z,4.04
2022-11-17T12:38:09.856Z,4.03
2022-11-17T12:39:14.049Z,4.01
2022-11-17T12:40:18.192Z,4.01
2022-11-17T12:41:22.346Z,3.99
2022-11-17T12:42:26.563Z,4.00
2022-11-17T12:43:30.662Z,3.99
2022-11-17T12:44:34.898Z,4.01
2022-11-17T12:45:41.839Z,4.02
2022-11-17T12:46:43.123Z,4.01
2022-11-17T12:47:59.425Z,4.01
2022-11-17T12:48:51.468Z,4.01
2022-11-17T12:49:55.635Z,4.03
2022-11-17T12:51:04.668Z,4.05
2022-11-17T12:52:04.034Z,4.07
2022-11-17T12:53:08.182Z,4.09
2022-11-17T12:54:12.880Z,4.10
2022-11-17T12:55:16.637Z,4.12
2022-11-17T12:56:20.743Z,4.09
2022-11-17T12:57:24.894Z,4.07
2022-11-17T12:58:29.181Z,4.07
2022-11-17T12:59:33.358Z,4.07
2022-11-17T13:00:37.534Z,4.07
2022-11-17T13:01:41.808Z,4.08
2022-11-17T13:02:45.875Z,4.09
2022-11-17T13:03:50.015Z,4.08
2022-11-17T13:04:54.172Z,4.09
2022-11-17T13:06:20.279Z,4.07
2022-11-17T13:07:02.700Z,4.07
2022-11-17T13:08:06.691Z,4.06
2022-11-17T13:09:10.866Z,4.04
2022-11-17T13:10:15.013Z,4.02
2022-11-17T13:11:19.172Z,4.04
2022-11-17T13:12:23.371Z,4.04
2022-11-17T13:13:27.516Z,4.06
2022-11-17T13:14:31.697Z,4.07
2022-11-17T13:15:35.886Z,4.07
2022-11-17T13:16:40.309Z,4.06
2022-11-17T13:17:44.354Z,4.06
2022-11-17T13:18:48.469Z,4.04
2022-11-17T13:19:52.651Z,4.06
2022-11-17T13:20:56.822Z,4.06
2022-11-17T13:22:00.974Z,4.08
2022-11-17T13:23:05.119Z,4.09
2022-11-17T13:24:09.386Z,4.09
2022-11-17T13:25:13.537Z,4.08
2022-11-17T13:26:17.797Z,4.07
2022-11-17T13:27:21.901Z,4.05
2022-11-17T13:28:26.076Z,4.03
2022-11-17T13:29:30.253Z,4.02
2022-11-17T13:30:34.405Z,4.03
2022-11-17T13:31:38.578Z,4.04
2022-11-17T13:32:42.715Z,4.03
2022-11-17T13:33:47.007Z,4.02
2022-11-17T13:34:51.177Z,4.02
2022-11-17T13:35:55.299Z,4.02
2022-11-17T13:36:59.451Z,4.00
2022-11-17T13:38:03.717Z,4.00
2022-11-17T13:39:07.917Z,4.01
2022-11-17T13:40:12.064Z,4.03
2022-11-17T13:41:16.229Z,4.01
2022-11-17T13:42:20.386Z,3.98
2022-11-17T13:43:24.593Z,3.97
2022-11-17T13:44:28.726Z,3.97
2022-11-17T13:45:32.943Z,3.98
2022-11-17T13:46:37.093Z,3.97
2022-11-17T13:47:41.269Z,3.96
2022-11-17T13:48:45.433Z,3.95
2022-11-17T13:49:49.670Z,3.97
2022-11-17T13:50:53.817Z,3.97
2022-11-17T13:51:58.019Z,3.96
2022-11-17T13:53:02.053Z,3.95
2022-11-17T13:54:06.282Z,3.94
2022-11-17T13:55:10.560Z,3.95
2022-11-17T13:56:14.654Z,3.95
2022-11-17T13:57:18.859Z,3.96
2022-11-17T13:58:26.528Z,3.98
2022-11-17T13:59:27.290Z,3.98
2022-11-17T14:00:31.299Z,3.96
2022-11-17T14:01:35.578Z,3.94
2022-11-17T14:02:39.647Z,3.93
2022-11-17T14:03:43.909Z,3.93
2022-11-17T14:04:48.061Z,3.96
2022-11-17T14:05:52.091Z,3.98
2022-11-17T14:06:56.478Z,3.98
2022-11-17T14:08:00.606Z,3.98
2022-11-17T14:09:04.725Z,3.98
2022-11-17T14:10:12.412Z,3.98
2022-11-17T14:11:13.064Z,3.98
2022-11-17T14:12:17.358Z,3.97
2022-11-17T14:13:24.473Z,3.98
2022-11-17T14:14:27.639Z,3.97
2022-11-17T14:15:31.752Z,3.98